sensor_id;sensor_type;location;lat;lon;timestamp;P1;durP1;ratioP1;P2;durP2;ratioP2
21122;SDS011;10719;48.130;11.630;2023-04-24T00:02:14;1.50;;;0.75;;
21122;SDS011;10719;48.130;11.630;2023-04-24T00:04:41;1.23;;;0.77;;
21122;SDS011;10719;48.130;11.630;2023-04-24T00:07:09;2.53;;;0.90;;
21122;SDS011;10719;48.130;11.630;2023-04-24T00:09:35;0.82;;;0.65;;
21122;SDS011;10719;48.130;11.630;2023-04-24T00:12:01;0.63;;;0.52;;
21122;SDS011;10719;48.130;11.630;2023-04-24T00:14:29;2.75;;;1.20;;
21122;SDS011;10719;48.130;11.630;2023-04-24T00:16:59;1.88;;;0.85;;
21122;SDS011;10719;48.130;11.630;2023-04-24T00:19:25;1.60;;;0.70;;
21122;SDS011;10719;48.130;11.630;2023-04-24T00:21:51;2.30;;;1.17;;
21122;SDS011;10719;48.130;11.630;2023-04-24T00:24:16;2.00;;;0.70;;
21122;SDS011;10719;48.130;11.630;2023-04-24T00:26:43;2.13;;;0.80;;
21122;SDS011;10719;48.130;11.630;2023-04-24T00:29:08;1.00;;;0.60;;
21122;SDS011;10719;48.130;11.630;2023-04-24T00:31:34;1.05;;;0.70;;
21122;SDS011;10719;48.130;11.630;2023-04-24T00:34:00;2.20;;;0.90;;
21122;SDS011;10719;48.130;11.630;2023-04-24T00:36:27;1.42;;;0.63;;
21122;SDS011;10719;48.130;11.630;2023-04-24T00:38:53;0.95;;;0.55;;
21122;SDS011;10719;48.130;11.630;2023-04-24T00:41:19;0.70;;;0.50;;
21122;SDS011;10719;48.130;11.630;2023-04-24T00:43:45;1.77;;;0.63;;
21122;SDS011;10719;48.130;11.630;2023-04-24T00:46:11;0.98;;;0.50;;
21122;SDS011;10719;48.130;11.630;2023-04-24T00:48:38;2.90;;;0.70;;
21122;SDS011;10719;48.130;11.630;2023-04-24T00:51:05;0.77;;;0.57;;
21122;SDS011;10719;48.130;11.630;2023-04-24T00:53:30;0.57;;;0.57;;
21122;SDS011;10719;48.130;11.630;2023-04-24T00:55:56;1.75;;;0.75;;
21122;SDS011;10719;48.130;11.630;2023-04-24T00:58:22;0.80;;;0.60;;
21122;SDS011;10719;48.130;11.630;2023-04-24T01:00:49;0.40;;;0.40;;
21122;SDS011;10719;48.130;11.630;2023-04-24T01:03:19;1.52;;;0.85;;
21122;SDS011;10719;48.130;11.630;2023-04-24T01:05:46;0.60;;;0.60;;
21122;SDS011;10719;48.130;11.630;2023-04-24T01:08:13;0.50;;;0.50;;
21122;SDS011;10719;48.130;11.630;2023-04-24T01:10:39;0.90;;;0.63;;
21122;SDS011;10719;48.130;11.630;2023-04-24T01:13:07;0.85;;;0.73;;
21122;SDS011;10719;48.130;11.630;2023-04-24T01:15:33;0.40;;;0.40;;
21122;SDS011;10719;48.130;11.630;2023-04-24T01:17:59;1.23;;;0.60;;
21122;SDS011;10719;48.130;11.630;2023-04-24T01:20:25;1.77;;;0.65;;
21122;SDS011;10719;48.130;11.630;2023-04-24T01:22:51;0.98;;;0.50;;
21122;SDS011;10719;48.130;11.630;2023-04-24T01:25:18;0.90;;;0.57;;
21122;SDS011;10719;48.130;11.630;2023-04-24T01:27:44;0.75;;;0.50;;
21122;SDS011;10719;48.130;11.630;2023-04-24T01:30:09;1.00;;;0.40;;
21122;SDS011;10719;48.130;11.630;2023-04-24T01:32:36;0.50;;;0.50;;
21122;SDS011;10719;48.130;11.630;2023-04-24T01:35:02;0.85;;;0.60;;
21122;SDS011;10719;48.130;11.630;2023-04-24T01:37:28;0.43;;;0.40;;
21122;SDS011;10719;48.130;11.630;2023-04-24T01:39:54;1.77;;;0.82;;
21122;SDS011;10719;48.130;11.630;2023-04-24T01:42:20;1.20;;;0.60;;
21122;SDS011;10719;48.130;11.630;2023-04-24T01:44:46;0.80;;;0.60;;
21122;SDS011;10719;48.130;11.630;2023-04-24T01:47:12;1.27;;;0.45;;
21122;SDS011;10719;48.130;11.630;2023-04-24T01:49:38;0.55;;;0.50;;
21122;SDS011;10719;48.130;11.630;2023-04-24T01:52:04;0.88;;;0.50;;
21122;SDS011;10719;48.130;11.630;2023-04-24T01:54:30;0.45;;;0.30;;
21122;SDS011;10719;48.130;11.630;2023-04-24T01:56:55;0.50;;;0.50;;
21122;SDS011;10719;48.130;11.630;2023-04-24T01:59:21;0.38;;;0.30;;
21122;SDS011;10719;48.130;11.630;2023-04-24T02:01:50;0.30;;;0.30;;
21122;SDS011;10719;48.130;11.630;2023-04-24T02:04:15;1.45;;;0.63;;
21122;SDS011;10719;48.130;11.630;2023-04-24T02:06:41;0.30;;;0.30;;
21122;SDS011;10719;48.130;11.630;2023-04-24T02:09:07;0.57;;;0.45;;
21122;SDS011;10719;48.130;11.630;2023-04-24T02:11:32;0.40;;;0.40;;
21122;SDS011;10719;48.130;11.630;2023-04-24T02:13:58;1.17;;;0.73;;
21122;SDS011;10719;48.130;11.630;2023-04-24T02:16:24;1.58;;;0.57;;
21122;SDS011;10719;48.130;11.630;2023-04-24T02:18:50;2.17;;;0.57;;
21122;SDS011;10719;48.130;11.630;2023-04-24T02:21:16;0.57;;;0.40;;
21122;SDS011;10719;48.130;11.630;2023-04-24T02:23:41;0.52;;;0.30;;
21122;SDS011;10719;48.130;11.630;2023-04-24T02:26:07;0.52;;;0.50;;
21122;SDS011;10719;48.130;11.630;2023-04-24T02:28:33;0.40;;;0.40;;
21122;SDS011;10719;48.130;11.630;2023-04-24T02:30:59;0.38;;;0.30;;
21122;SDS011;10719;48.130;11.630;2023-04-24T02:33:25;0.40;;;0.40;;
21122;SDS011;10719;48.130;11.630;2023-04-24T02:35:51;0.60;;;0.30;;
21122;SDS011;10719;48.130;11.630;2023-04-24T02:38:16;0.35;;;0.35;;
21122;SDS011;10719;48.130;11.630;2023-04-24T02:40:42;0.30;;;0.30;;
21122;SDS011;10719;48.130;11.630;2023-04-24T02:43:07;0.30;;;0.30;;
21122;SDS011;10719;48.130;11.630;2023-04-24T02:45:33;0.55;;;0.40;;
21122;SDS011;10719;48.130;11.630;2023-04-24T02:47:59;0.77;;;0.52;;
21122;SDS011;10719;48.130;11.630;2023-04-24T02:50:25;0.68;;;0.40;;
21122;SDS011;10719;48.130;11.630;2023-04-24T02:52:50;0.47;;;0.32;;
21122;SDS011;10719;48.130;11.630;2023-04-24T02:55:16;0.63;;;0.40;;
21122;SDS011;10719;48.130;11.630;2023-04-24T02:57:42;0.40;;;0.40;;
21122;SDS011;10719;48.130;11.630;2023-04-24T03:00:07;0.47;;;0.40;;
21122;SDS011;10719;48.130;11.630;2023-04-24T03:02:34;0.38;;;0.30;;
21122;SDS011;10719;48.130;11.630;2023-04-24T03:04:59;0.82;;;0.40;;
21122;SDS011;10719;48.130;11.630;2023-04-24T03:07:25;2.05;;;0.60;;
21122;SDS011;10719;48.130;11.630;2023-04-24T03:09:50;0.52;;;0.50;;
21122;SDS011;10719;48.130;11.630;2023-04-24T03:12:16;0.52;;;0.40;;
21122;SDS011;10719;48.130;11.630;2023-04-24T03:14:42;2.90;;;0.70;;
21122;SDS011;10719;48.130;11.630;2023-04-24T03:17:08;0.47;;;0.47;;
21122;SDS011;10719;48.130;11.630;2023-04-24T03:19:34;3.83;;;0.77;;
21122;SDS011;10719;48.130;11.630;2023-04-24T03:22:01;1.75;;;0.57;;
21122;SDS011;10719;48.130;11.630;2023-04-24T03:24:27;0.40;;;0.40;;
21122;SDS011;10719;48.130;11.630;2023-04-24T03:26:53;0.30;;;0.30;;
21122;SDS011;10719;48.130;11.630;2023-04-24T03:29:18;0.90;;;0.45;;
21122;SDS011;10719;48.130;11.630;2023-04-24T03:31:44;0.82;;;0.40;;
21122;SDS011;10719;48.130;11.630;2023-04-24T03:34:10;0.32;;;0.30;;
21122;SDS011;10719;48.130;11.630;2023-04-24T03:36:36;0.85;;;0.52;;
21122;SDS011;10719;48.130;11.630;2023-04-24T03:39:01;0.95;;;0.40;;
21122;SDS011;10719;48.130;11.630;2023-04-24T03:41:27;3.15;;;0.50;;
21122;SDS011;10719;48.130;11.630;2023-04-24T03:43:52;0.40;;;0.30;;
21122;SDS011;10719;48.130;11.630;2023-04-24T03:46:18;0.38;;;0.38;;
21122;SDS011;10719;48.130;11.630;2023-04-24T03:48:43;0.77;;;0.68;;
21122;SDS011;10719;48.130;11.630;2023-04-24T03:51:09;1.10;;;0.50;;
21122;SDS011;10719;48.130;11.630;2023-04-24T03:53:35;0.40;;;0.30;;
21122;SDS011;10719;48.130;11.630;2023-04-24T03:56:00;0.47;;;0.47;;
21122;SDS011;10719;48.130;11.630;2023-04-24T03:58:26;0.57;;;0.50;;
21122;SDS011;10719;48.130;11.630;2023-04-24T04:00:51;0.30;;;0.30;;
21122;SDS011;10719;48.130;11.630;2023-04-24T04:03:17;1.15;;;0.82;;
21122;SDS011;10719;48.130;11.630;2023-04-24T04:05:42;0.40;;;0.40;;
21122;SDS011;10719;48.130;11.630;2023-04-24T04:08:08;2.33;;;0.80;;
21122;SDS011;10719;48.130;11.630;2023-04-24T04:10:34;3.13;;;0.50;;
21122;SDS011;10719;48.130;11.630;2023-04-24T04:12:59;3.25;;;0.88;;
21122;SDS011;10719;48.130;11.630;2023-04-24T04:15:25;0.52;;;0.52;;
21122;SDS011;10719;48.130;11.630;2023-04-24T04:17:50;1.90;;;0.70;;
21122;SDS011;10719;48.130;11.630;2023-04-24T04:20:16;0.68;;;0.50;;
21122;SDS011;10719;48.130;11.630;2023-04-24T04:22:42;1.25;;;0.55;;
21122;SDS011;10719;48.130;11.630;2023-04-24T04:25:07;0.75;;;0.60;;
21122;SDS011;10719;48.130;11.630;2023-04-24T04:27:33;0.63;;;0.45;;
21122;SDS011;10719;48.130;11.630;2023-04-24T04:30:00;0.47;;;0.40;;
21122;SDS011;10719;48.130;11.630;2023-04-24T04:32:29;0.60;;;0.50;;
21122;SDS011;10719;48.130;11.630;2023-04-24T04:34:58;2.65;;;0.80;;
21122;SDS011;10719;48.130;11.630;2023-04-24T04:37:28;1.25;;;0.90;;
21122;SDS011;10719;48.130;11.630;2023-04-24T04:39:54;0.63;;;0.47;;
21122;SDS011;10719;48.130;11.630;2023-04-24T04:42:20;0.57;;;0.57;;
21122;SDS011;10719;48.130;11.630;2023-04-24T04:44:46;0.70;;;0.50;;
21122;SDS011;10719;48.130;11.630;2023-04-24T04:47:11;0.57;;;0.47;;
21122;SDS011;10719;48.130;11.630;2023-04-24T04:49:37;1.40;;;0.60;;
21122;SDS011;10719;48.130;11.630;2023-04-24T04:52:03;0.85;;;0.50;;
21122;SDS011;10719;48.130;11.630;2023-04-24T04:54:29;1.85;;;0.55;;
21122;SDS011;10719;48.130;11.630;2023-04-24T04:56:54;0.63;;;0.50;;
21122;SDS011;10719;48.130;11.630;2023-04-24T04:59:20;0.43;;;0.43;;
21122;SDS011;10719;48.130;11.630;2023-04-24T05:01:46;0.90;;;0.60;;
21122;SDS011;10719;48.130;11.630;2023-04-24T05:04:11;0.30;;;0.30;;
21122;SDS011;10719;48.130;11.630;2023-04-24T05:06:37;1.27;;;0.30;;
21122;SDS011;10719;48.130;11.630;2023-04-24T05:09:02;0.77;;;0.68;;
21122;SDS011;10719;48.130;11.630;2023-04-24T05:11:28;0.32;;;0.32;;
21122;SDS011;10719;48.130;11.630;2023-04-24T05:13:54;1.00;;;0.60;;
21122;SDS011;10719;48.130;11.630;2023-04-24T05:16:20;2.05;;;0.32;;
21122;SDS011;10719;48.130;11.630;2023-04-24T05:18:46;1.05;;;0.65;;
21122;SDS011;10719;48.130;11.630;2023-04-24T05:21:12;0.82;;;0.60;;
21122;SDS011;10719;48.130;11.630;2023-04-24T05:23:37;1.08;;;0.50;;
21122;SDS011;10719;48.130;11.630;2023-04-24T05:26:03;0.77;;;0.40;;
21122;SDS011;10719;48.130;11.630;2023-04-24T05:28:28;1.25;;;0.50;;
21122;SDS011;10719;48.130;11.630;2023-04-24T05:30:54;1.45;;;0.60;;
21122;SDS011;10719;48.130;11.630;2023-04-24T05:33:20;0.65;;;0.47;;
21122;SDS011;10719;48.130;11.630;2023-04-24T05:35:47;0.90;;;0.40;;
21122;SDS011;10719;48.130;11.630;2023-04-24T05:38:13;0.65;;;0.50;;
21122;SDS011;10719;48.130;11.630;2023-04-24T05:40:39;0.38;;;0.38;;
21122;SDS011;10719;48.130;11.630;2023-04-24T05:43:05;1.80;;;0.57;;
21122;SDS011;10719;48.130;11.630;2023-04-24T05:45:31;0.30;;;0.30;;
21122;SDS011;10719;48.130;11.630;2023-04-24T05:47:56;1.60;;;0.50;;
21122;SDS011;10719;48.130;11.630;2023-04-24T05:50:22;0.40;;;0.40;;
21122;SDS011;10719;48.130;11.630;2023-04-24T05:52:48;0.35;;;0.30;;
21122;SDS011;10719;48.130;11.630;2023-04-24T05:55:13;1.25;;;0.43;;
21122;SDS011;10719;48.130;11.630;2023-04-24T05:57:42;0.77;;;0.35;;
21122;SDS011;10719;48.130;11.630;2023-04-24T06:00:08;0.50;;;0.32;;
21122;SDS011;10719;48.130;11.630;2023-04-24T06:02:37;0.98;;;0.47;;
21122;SDS011;10719;48.130;11.630;2023-04-24T06:05:03;0.73;;;0.68;;
21122;SDS011;10719;48.130;11.630;2023-04-24T06:07:29;0.93;;;0.52;;
21122;SDS011;10719;48.130;11.630;2023-04-24T06:09:55;0.32;;;0.32;;
21122;SDS011;10719;48.130;11.630;2023-04-24T06:12:21;1.23;;;0.43;;
21122;SDS011;10719;48.130;11.630;2023-04-24T06:14:47;0.70;;;0.40;;
21122;SDS011;10719;48.130;11.630;2023-04-24T06:17:13;0.32;;;0.32;;
21122;SDS011;10719;48.130;11.630;2023-04-24T06:19:39;1.00;;;0.40;;
21122;SDS011;10719;48.130;11.630;2023-04-24T06:22:05;0.38;;;0.38;;
21122;SDS011;10719;48.130;11.630;2023-04-24T06:24:31;0.95;;;0.68;;
21122;SDS011;10719;48.130;11.630;2023-04-24T06:26:56;0.40;;;0.40;;
21122;SDS011;10719;48.130;11.630;2023-04-24T06:29:23;0.57;;;0.30;;
21122;SDS011;10719;48.130;11.630;2023-04-24T06:31:49;0.40;;;0.32;;
21122;SDS011;10719;48.130;11.630;2023-04-24T06:34:15;1.02;;;0.47;;
21122;SDS011;10719;48.130;11.630;2023-04-24T06:36:40;0.22;;;0.22;;
21122;SDS011;10719;48.130;11.630;2023-04-24T06:39:06;0.35;;;0.35;;
21122;SDS011;10719;48.130;11.630;2023-04-24T06:41:32;2.00;;;0.57;;
21122;SDS011;10719;48.130;11.630;2023-04-24T06:43:57;4.30;;;0.50;;
21122;SDS011;10719;48.130;11.630;2023-04-24T06:46:23;0.28;;;0.28;;
21122;SDS011;10719;48.130;11.630;2023-04-24T06:48:51;0.30;;;0.30;;
21122;SDS011;10719;48.130;11.630;2023-04-24T06:51:17;0.32;;;0.30;;
21122;SDS011;10719;48.130;11.630;2023-04-24T06:53:43;0.30;;;0.30;;
21122;SDS011;10719;48.130;11.630;2023-04-24T06:56:09;1.02;;;0.35;;
21122;SDS011;10719;48.130;11.630;2023-04-24T06:58:34;2.47;;;0.65;;
21122;SDS011;10719;48.130;11.630;2023-04-24T07:01:00;0.45;;;0.30;;
21122;SDS011;10719;48.130;11.630;2023-04-24T07:03:26;0.55;;;0.50;;
21122;SDS011;10719;48.130;11.630;2023-04-24T07:05:52;0.28;;;0.28;;
21122;SDS011;10719;48.130;11.630;2023-04-24T07:08:18;0.38;;;0.30;;
21122;SDS011;10719;48.130;11.630;2023-04-24T07:10:45;0.50;;;0.40;;
21122;SDS011;10719;48.130;11.630;2023-04-24T07:13:11;0.38;;;0.38;;
21122;SDS011;10719;48.130;11.630;2023-04-24T07:15:36;0.38;;;0.38;;
21122;SDS011;10719;48.130;11.630;2023-04-24T07:18:02;0.38;;;0.38;;
21122;SDS011;10719;48.130;11.630;2023-04-24T07:20:28;0.90;;;0.43;;
21122;SDS011;10719;48.130;11.630;2023-04-24T07:22:53;0.70;;;0.50;;
21122;SDS011;10719;48.130;11.630;2023-04-24T07:25:19;0.30;;;0.30;;
21122;SDS011;10719;48.130;11.630;2023-04-24T07:27:45;0.30;;;0.30;;
21122;SDS011;10719;48.130;11.630;2023-04-24T07:30:11;0.73;;;0.40;;
21122;SDS011;10719;48.130;11.630;2023-04-24T07:32:36;0.20;;;0.20;;
21122;SDS011;10719;48.130;11.630;2023-04-24T07:35:02;0.30;;;0.30;;
21122;SDS011;10719;48.130;11.630;2023-04-24T07:37:28;1.55;;;0.45;;
21122;SDS011;10719;48.130;11.630;2023-04-24T07:39:54;1.30;;;0.80;;
21122;SDS011;10719;48.130;11.630;2023-04-24T07:42:20;0.20;;;0.20;;
21122;SDS011;10719;48.130;11.630;2023-04-24T07:44:45;0.30;;;0.30;;
21122;SDS011;10719;48.130;11.630;2023-04-24T07:47:12;3.33;;;0.40;;
21122;SDS011;10719;48.130;11.630;2023-04-24T07:49:40;0.30;;;0.30;;
21122;SDS011;10719;48.130;11.630;2023-04-24T07:52:06;0.38;;;0.35;;
21122;SDS011;10719;48.130;11.630;2023-04-24T07:54:32;0.38;;;0.38;;
21122;SDS011;10719;48.130;11.630;2023-04-24T07:56:58;0.30;;;0.30;;
21122;SDS011;10719;48.130;11.630;2023-04-24T07:59:23;0.40;;;0.35;;
21122;SDS011;10719;48.130;11.630;2023-04-24T08:01:49;2.47;;;0.30;;
21122;SDS011;10719;48.130;11.630;2023-04-24T08:04:15;1.95;;;0.40;;
21122;SDS011;10719;48.130;11.630;2023-04-24T08:06:40;1.48;;;0.60;;
21122;SDS011;10719;48.130;11.630;2023-04-24T08:09:06;0.95;;;0.30;;
21122;SDS011;10719;48.130;11.630;2023-04-24T08:11:32;3.88;;;0.47;;
21122;SDS011;10719;48.130;11.630;2023-04-24T08:13:57;0.95;;;0.32;;
21122;SDS011;10719;48.130;11.630;2023-04-24T08:16:23;0.60;;;0.50;;
21122;SDS011;10719;48.130;11.630;2023-04-24T08:18:49;0.38;;;0.38;;
21122;SDS011;10719;48.130;11.630;2023-04-24T08:21:15;1.15;;;0.30;;
21122;SDS011;10719;48.130;11.630;2023-04-24T08:23:43;0.30;;;0.30;;
21122;SDS011;10719;48.130;11.630;2023-04-24T08:26:10;0.50;;;0.40;;
21122;SDS011;10719;48.130;11.630;2023-04-24T08:28:36;1.17;;;0.40;;
21122;SDS011;10719;48.130;11.630;2023-04-24T08:31:02;0.80;;;0.40;;
21122;SDS011;10719;48.130;11.630;2023-04-24T08:33:28;0.38;;;0.38;;
21122;SDS011;10719;48.130;11.630;2023-04-24T08:35:59;3.50;;;0.98;;
21122;SDS011;10719;48.130;11.630;2023-04-24T08:38:25;0.50;;;0.50;;
21122;SDS011;10719;48.130;11.630;2023-04-24T08:40:51;0.30;;;0.30;;
21122;SDS011;10719;48.130;11.630;2023-04-24T08:43:17;2.60;;;0.70;;
21122;SDS011;10719;48.130;11.630;2023-04-24T08:45:46;0.38;;;0.38;;
21122;SDS011;10719;48.130;11.630;2023-04-24T08:48:12;0.65;;;0.38;;
21122;SDS011;10719;48.130;11.630;2023-04-24T08:50:38;2.70;;;0.50;;
21122;SDS011;10719;48.130;11.630;2023-04-24T08:53:07;1.27;;;0.75;;
21122;SDS011;10719;48.130;11.630;2023-04-24T08:55:33;1.42;;;0.82;;
21122;SDS011;10719;48.130;11.630;2023-04-24T08:58:00;0.52;;;0.50;;
21122;SDS011;10719;48.130;11.630;2023-04-24T09:00:27;1.38;;;0.88;;
21122;SDS011;10719;48.130;11.630;2023-04-24T09:02:53;3.88;;;0.63;;
21122;SDS011;10719;48.130;11.630;2023-04-24T09:05:20;1.05;;;0.75;;
21122;SDS011;10719;48.130;11.630;2023-04-24T09:07:53;1.65;;;0.90;;
21122;SDS011;10719;48.130;11.630;2023-04-24T09:10:21;1.00;;;0.63;;
21122;SDS011;10719;48.130;11.630;2023-04-24T09:12:47;1.42;;;0.60;;
21122;SDS011;10719;48.130;11.630;2023-04-24T09:15:14;1.92;;;0.95;;
21122;SDS011;10719;48.130;11.630;2023-04-24T09:17:40;0.88;;;0.60;;
21122;SDS011;10719;48.130;11.630;2023-04-24T09:20:06;1.98;;;0.80;;
21122;SDS011;10719;48.130;11.630;2023-04-24T09:22:32;0.85;;;0.70;;
21122;SDS011;10719;48.130;11.630;2023-04-24T09:25:04;1.30;;;0.70;;
21122;SDS011;10719;48.130;11.630;2023-04-24T09:27:36;1.45;;;0.75;;
21122;SDS011;10719;48.130;11.630;2023-04-24T09:30:07;0.80;;;0.63;;
21122;SDS011;10719;48.130;11.630;2023-04-24T09:32:33;1.75;;;1.00;;
21122;SDS011;10719;48.130;11.630;2023-04-24T09:35:09;2.08;;;0.85;;
21122;SDS011;10719;48.130;11.630;2023-04-24T09:37:40;1.98;;;0.90;;
21122;SDS011;10719;48.130;11.630;2023-04-24T09:40:13;1.17;;;0.80;;
21122;SDS011;10719;48.130;11.630;2023-04-24T09:42:46;1.70;;;1.05;;
21122;SDS011;10719;48.130;11.630;2023-04-24T09:45:19;0.95;;;0.68;;
21122;SDS011;10719;48.130;11.630;2023-04-24T09:47:45;2.50;;;0.70;;
21122;SDS011;10719;48.130;11.630;2023-04-24T09:50:12;1.17;;;0.70;;
21122;SDS011;10719;48.130;11.630;2023-04-24T09:52:42;2.78;;;0.90;;
21122;SDS011;10719;48.130;11.630;2023-04-24T09:55:16;1.05;;;0.70;;
21122;SDS011;10719;48.130;11.630;2023-04-24T10:00:17;2.78;;;0.93;;
21122;SDS011;10719;48.130;11.630;2023-04-24T10:05:32;1.08;;;0.65;;
21122;SDS011;10719;48.130;11.630;2023-04-24T10:08:05;6.43;;;0.70;;
21122;SDS011;10719;48.130;11.630;2023-04-24T10:10:34;1.48;;;0.85;;
21122;SDS011;10719;48.130;11.630;2023-04-24T10:13:04;0.85;;;0.70;;
21122;SDS011;10719;48.130;11.630;2023-04-24T10:15:30;3.53;;;1.00;;
21122;SDS011;10719;48.130;11.630;2023-04-24T10:17:57;0.75;;;0.70;;
21122;SDS011;10719;48.130;11.630;2023-04-24T10:20:25;1.67;;;0.80;;
21122;SDS011;10719;48.130;11.630;2023-04-24T10:22:54;4.03;;;0.82;;
21122;SDS011;10719;48.130;11.630;2023-04-24T10:25:21;0.52;;;0.52;;
21122;SDS011;10719;48.130;11.630;2023-04-24T10:27:55;0.90;;;0.73;;
21122;SDS011;10719;48.130;11.630;2023-04-24T10:30:28;7.72;;;1.10;;
21122;SDS011;10719;48.130;11.630;2023-04-24T10:32:55;1.90;;;0.73;;
21122;SDS011;10719;48.130;11.630;2023-04-24T10:35:21;1.23;;;0.80;;
21122;SDS011;10719;48.130;11.630;2023-04-24T10:41:14;4.68;;;1.38;;
21122;SDS011;10719;48.130;11.630;2023-04-24T10:43:44;2.33;;;1.00;;
21122;SDS011;10719;48.130;11.630;2023-04-24T10:46:10;2.10;;;0.88;;
21122;SDS011;10719;48.130;11.630;2023-04-24T10:48:44;1.10;;;0.60;;
21122;SDS011;10719;48.130;11.630;2023-04-24T10:51:21;1.35;;;0.82;;
21122;SDS011;10719;48.130;11.630;2023-04-24T10:53:49;1.50;;;1.02;;
21122;SDS011;10719;48.130;11.630;2023-04-24T10:56:16;1.65;;;0.88;;
21122;SDS011;10719;48.130;11.630;2023-04-24T10:58:53;0.80;;;0.80;;
21122;SDS011;10719;48.130;11.630;2023-04-24T11:01:26;1.42;;;0.80;;
21122;SDS011;10719;48.130;11.630;2023-04-24T11:03:56;3.22;;;0.77;;
21122;SDS011;10719;48.130;11.630;2023-04-24T11:08:59;2.60;;;0.80;;
21122;SDS011;10719;48.130;11.630;2023-04-24T11:11:29;2.05;;;0.85;;
21122;SDS011;10719;48.130;11.630;2023-04-24T11:16:28;4.47;;;0.80;;
21122;SDS011;10719;48.130;11.630;2023-04-24T11:19:08;0.98;;;0.80;;
21122;SDS011;10719;48.130;11.630;2023-04-24T11:21:43;0.35;;;0.35;;
21122;SDS011;10719;48.130;11.630;2023-04-24T11:29:23;3.00;;;0.90;;
21122;SDS011;10719;48.130;11.630;2023-04-24T11:32:18;3.40;;;0.85;;
21122;SDS011;10719;48.130;11.630;2023-04-24T11:34:48;2.33;;;1.13;;
21122;SDS011;10719;48.130;11.630;2023-04-24T11:37:14;1.55;;;0.80;;
21122;SDS011;10719;48.130;11.630;2023-04-24T11:39:40;1.90;;;0.60;;
21122;SDS011;10719;48.130;11.630;2023-04-24T11:42:06;3.38;;;0.90;;
21122;SDS011;10719;48.130;11.630;2023-04-24T11:44:34;1.13;;;0.63;;
21122;SDS011;10719;48.130;11.630;2023-04-24T11:47:02;1.88;;;0.90;;
21122;SDS011;10719;48.130;11.630;2023-04-24T11:49:29;0.90;;;0.70;;
21122;SDS011;10719;48.130;11.630;2023-04-24T11:51:55;2.05;;;0.90;;
21122;SDS011;10719;48.130;11.630;2023-04-24T11:54:21;2.05;;;0.93;;
21122;SDS011;10719;48.130;11.630;2023-04-24T11:56:47;2.33;;;0.97;;
21122;SDS011;10719;48.130;11.630;2023-04-24T11:59:14;1.30;;;0.70;;
21122;SDS011;10719;48.130;11.630;2023-04-24T12:01:45;4.60;;;1.00;;
21122;SDS011;10719;48.130;11.630;2023-04-24T12:04:12;1.05;;;0.65;;
21122;SDS011;10719;48.130;11.630;2023-04-24T12:06:38;2.47;;;0.88;;
21122;SDS011;10719;48.130;11.630;2023-04-24T12:09:03;1.23;;;0.75;;
21122;SDS011;10719;48.130;11.630;2023-04-24T12:11:29;1.75;;;0.60;;
21122;SDS011;10719;48.130;11.630;2023-04-24T12:13:55;3.45;;;1.02;;
21122;SDS011;10719;48.130;11.630;2023-04-24T12:16:21;1.60;;;0.70;;
21122;SDS011;10719;48.130;11.630;2023-04-24T12:18:50;2.03;;;0.70;;
21122;SDS011;10719;48.130;11.630;2023-04-24T12:21:20;2.90;;;0.80;;
21122;SDS011;10719;48.130;11.630;2023-04-24T12:23:47;1.17;;;0.77;;
21122;SDS011;10719;48.130;11.630;2023-04-24T12:26:17;1.52;;;0.82;;
21122;SDS011;10719;48.130;11.630;2023-04-24T12:28:45;4.32;;;1.33;;
21122;SDS011;10719;48.130;11.630;2023-04-24T12:31:13;2.15;;;0.95;;
21122;SDS011;10719;48.130;11.630;2023-04-24T12:33:38;1.10;;;0.77;;
21122;SDS011;10719;48.130;11.630;2023-04-24T12:36:04;4.03;;;0.75;;
21122;SDS011;10719;48.130;11.630;2023-04-24T12:38:31;1.60;;;0.80;;
21122;SDS011;10719;48.130;11.630;2023-04-24T12:41:05;1.27;;;0.80;;
21122;SDS011;10719;48.130;11.630;2023-04-24T12:43:35;1.65;;;1.00;;
21122;SDS011;10719;48.130;11.630;2023-04-24T12:46:01;2.35;;;0.70;;
21122;SDS011;10719;48.130;11.630;2023-04-24T12:48:28;4.18;;;1.08;;
21122;SDS011;10719;48.130;11.630;2023-04-24T12:50:54;1.48;;;1.05;;
21122;SDS011;10719;48.130;11.630;2023-04-24T12:53:21;3.67;;;0.80;;
21122;SDS011;10719;48.130;11.630;2023-04-24T12:55:47;1.00;;;0.50;;
21122;SDS011;10719;48.130;11.630;2023-04-24T12:58:18;0.93;;;0.60;;
21122;SDS011;10719;48.130;11.630;2023-04-24T13:00:45;1.55;;;0.88;;
21122;SDS011;10719;48.130;11.630;2023-04-24T13:03:11;3.10;;;0.90;;
21122;SDS011;10719;48.130;11.630;2023-04-24T13:05:37;0.57;;;0.57;;
21122;SDS011;10719;48.130;11.630;2023-04-24T13:08:03;2.63;;;0.80;;
21122;SDS011;10719;48.130;11.630;2023-04-24T13:10:29;1.80;;;0.70;;
21122;SDS011;10719;48.130;11.630;2023-04-24T13:12:54;1.08;;;0.73;;
21122;SDS011;10719;48.130;11.630;2023-04-24T13:15:20;2.90;;;0.80;;
21122;SDS011;10719;48.130;11.630;2023-04-24T13:17:46;0.43;;;0.40;;
21122;SDS011;10719;48.130;11.630;2023-04-24T13:20:11;2.33;;;0.70;;
21122;SDS011;10719;48.130;11.630;2023-04-24T13:22:37;0.88;;;0.80;;
21122;SDS011;10719;48.130;11.630;2023-04-24T13:25:03;3.45;;;1.00;;
21122;SDS011;10719;48.130;11.630;2023-04-24T13:27:31;1.85;;;0.90;;
21122;SDS011;10719;48.130;11.630;2023-04-24T13:29:56;3.20;;;0.85;;
21122;SDS011;10719;48.130;11.630;2023-04-24T13:32:23;3.83;;;1.13;;
21122;SDS011;10719;48.130;11.630;2023-04-24T13:34:49;2.47;;;1.23;;
21122;SDS011;10719;48.130;11.630;2023-04-24T13:37:14;1.17;;;0.93;;
21122;SDS011;10719;48.130;11.630;2023-04-24T13:39:41;2.15;;;1.00;;
21122;SDS011;10719;48.130;11.630;2023-04-24T13:42:06;2.60;;;0.88;;
21122;SDS011;10719;48.130;11.630;2023-04-24T13:44:32;6.93;;;1.00;;
21122;SDS011;10719;48.130;11.630;2023-04-24T13:46:58;6.13;;;0.93;;
21122;SDS011;10719;48.130;11.630;2023-04-24T13:49:24;2.25;;;0.85;;
21122;SDS011;10719;48.130;11.630;2023-04-24T13:51:51;1.42;;;0.80;;
21122;SDS011;10719;48.130;11.630;2023-04-24T13:54:17;1.70;;;0.90;;
21122;SDS011;10719;48.130;11.630;2023-04-24T13:56:42;2.03;;;1.10;;
21122;SDS011;10719;48.130;11.630;2023-04-24T13:59:08;10.75;;;1.00;;
21122;SDS011;10719;48.130;11.630;2023-04-24T14:01:34;2.47;;;0.60;;
21122;SDS011;10719;48.130;11.630;2023-04-24T14:04:01;3.22;;;0.90;;
21122;SDS011;10719;48.130;11.630;2023-04-24T14:06:26;4.28;;;1.13;;
21122;SDS011;10719;48.130;11.630;2023-04-24T14:08:52;3.05;;;0.93;;
21122;SDS011;10719;48.130;11.630;2023-04-24T14:11:18;1.45;;;0.90;;
21122;SDS011;10719;48.130;11.630;2023-04-24T14:13:44;2.45;;;1.27;;
21122;SDS011;10719;48.130;11.630;2023-04-24T14:16:10;3.30;;;1.00;;
21122;SDS011;10719;48.130;11.630;2023-04-24T14:18:36;6.30;;;1.20;;
21122;SDS011;10719;48.130;11.630;2023-04-24T14:21:05;1.50;;;1.02;;
21122;SDS011;10719;48.130;11.630;2023-04-24T14:23:30;2.25;;;0.82;;
21122;SDS011;10719;48.130;11.630;2023-04-24T14:25:57;2.22;;;0.93;;
21122;SDS011;10719;48.130;11.630;2023-04-24T14:28:23;2.53;;;0.90;;
21122;SDS011;10719;48.130;11.630;2023-04-24T14:30:49;1.00;;;0.70;;
21122;SDS011;10719;48.130;11.630;2023-04-24T14:33:15;3.15;;;1.13;;
21122;SDS011;10719;48.130;11.630;2023-04-24T14:35:41;1.08;;;0.80;;
21122;SDS011;10719;48.130;11.630;2023-04-24T14:38:07;1.35;;;0.68;;
21122;SDS011;10719;48.130;11.630;2023-04-24T14:40:33;1.92;;;0.88;;
21122;SDS011;10719;48.130;11.630;2023-04-24T14:43:00;4.68;;;0.98;;
21122;SDS011;10719;48.130;11.630;2023-04-24T14:45:26;3.03;;;0.95;;
21122;SDS011;10719;48.130;11.630;2023-04-24T14:47:52;1.80;;;0.77;;
21122;SDS011;10719;48.130;11.630;2023-04-24T14:50:18;5.55;;;0.98;;